sensor_id;sensor_type;location;lat;lon;timestamp;pressure;altitude;pressure_sealevel;temperature;humidity
85928;BME280;76685;49.582;18.342;2024-03-25T00:02:19;95866.64;;;3.98;73.49
85928;BME280;76685;49.582;18.342;2024-03-25T00:04:45;95869.21;;;3.98;73.23
85928;BME280;76685;49.582;18.342;2024-03-25T00:07:12;95877.83;;;3.99;73.00
85928;BME280;76685;49.582;18.342;2024-03-25T00:09:42;95876.94;;;4.02;72.61
85928;BME280;76685;49.582;18.342;2024-03-25T00:12:09;95874.53;;;4.03;72.64
85928;BME280;76685;49.582;18.342;2024-03-25T00:14:36;95875.77;;;4.03;72.71
85928;BME280;76685;49.582;18.342;2024-03-25T00:17:03;95872.89;;;4.01;72.63
85928;BME280;76685;49.582;18.342;2024-03-25T00:19:30;95871.08;;;4.02;72.39
85928;BME280;76685;49.582;18.342;2024-03-25T00:21:58;95864.73;;;4.01;72.41
85928;BME280;76685;49.582;18.342;2024-03-25T00:24:25;95864.80;;;4.00;72.32
85928;BME280;76685;49.582;18.342;2024-03-25T00:26:53;95859.57;;;3.99;72.40
85928;BME280;76685;49.582;18.342;2024-03-25T00:29:20;95860.45;;;3.96;72.13
85928;BME280;76685;49.582;18.342;2024-03-25T00:31:47;95861.98;;;3.94;72.62
85928;BME280;76685;49.582;18.342;2024-03-25T00:34:14;95861.55;;;3.91;72.67
85928;BME280;76685;49.582;18.342;2024-03-25T00:36:41;95866.79;;;3.91;72.86
85928;BME280;76685;49.582;18.342;2024-03-25T00:39:08;95862.83;;;3.91;72.88
85928;BME280;76685;49.582;18.342;2024-03-25T00:41:35;95869.92;;;3.92;72.99
85928;BME280;76685;49.582;18.342;2024-03-25T00:44:02;95870.25;;;3.93;72.72
85928;BME280;76685;49.582;18.342;2024-03-25T00:46:30;95869.79;;;3.97;73.02
85928;BME280;76685;49.582;18.342;2024-03-25T00:49:17;95869.27;;;4.02;72.55
85928;BME280;76685;49.582;18.342;2024-03-25T00:51:44;95863.79;;;4.06;72.54
85928;BME280;76685;49.582;18.342;2024-03-25T00:54:10;95861.85;;;4.09;72.84
85928;BME280;76685;49.582;18.342;2024-03-25T00:56:37;95863.38;;;4.11;73.07
85928;BME280;76685;49.582;18.342;2024-03-25T00:59:04;95865.52;;;4.08;73.56
85928;BME280;76685;49.582;18.342;2024-03-25T01:01:33;95863.27;;;4.06;73.46
85928;BME280;76685;49.582;18.342;2024-03-25T01:04:03;95848.95;;;4.03;73.74
85928;BME280;76685;49.582;18.342;2024-03-25T01:06:30;95847.42;;;4.02;73.99
85928;BME280;76685;49.582;18.342;2024-03-25T01:08:57;95842.59;;;3.98;74.54
85928;BME280;76685;49.582;18.342;2024-03-25T01:11:24;95844.89;;;3.95;74.78
85928;BME280;76685;49.582;18.342;2024-03-25T01:13:51;95844.67;;;3.88;75.13
85928;BME280;76685;49.582;18.342;2024-03-25T01:16:18;95843.50;;;3.81;75.33
85928;BME280;76685;49.582;18.342;2024-03-25T01:18:45;95839.79;;;3.74;74.89
85928;BME280;76685;49.582;18.342;2024-03-25T01:21:12;95840.58;;;3.71;74.75
85928;BME280;76685;49.582;18.342;2024-03-25T01:23:39;95839.90;;;3.67;74.56
85928;BME280;76685;49.582;18.342;2024-03-25T01:26:07;95843.25;;;3.64;74.65
85928;BME280;76685;49.582;18.342;2024-03-25T01:28:33;95846.28;;;3.63;74.95
85928;BME280;76685;49.582;18.342;2024-03-25T01:31:05;95840.87;;;3.62;74.53
85928;BME280;76685;49.582;18.342;2024-03-25T01:33:32;95838.76;;;3.60;75.12
85928;BME280;76685;49.582;18.342;2024-03-25T01:35:59;95838.09;;;3.61;75.12
85928;BME280;76685;49.582;18.342;2024-03-25T01:38:26;95830.25;;;3.63;75.25
85928;BME280;76685;49.582;18.342;2024-03-25T01:40:53;95830.70;;;3.66;74.83
85928;BME280;76685;49.582;18.342;2024-03-25T01:43:20;95833.59;;;3.69;75.06
85928;BME280;76685;49.582;18.342;2024-03-25T01:45:47;95830.25;;;3.72;75.28
85928;BME280;76685;49.582;18.342;2024-03-25T01:48:14;95833.98;;;3.72;75.78
85928;BME280;76685;49.582;18.342;2024-03-25T01:50:43;95835.94;;;3.69;76.28
85928;BME280;76685;49.582;18.342;2024-03-25T01:53:12;95836.31;;;3.67;76.86
85928;BME280;76685;49.582;18.342;2024-03-25T01:55:40;95833.33;;;3.67;77.08
85928;BME280;76685;49.582;18.342;2024-03-25T01:58:08;95834.67;;;3.66;77.14
85928;BME280;76685;49.582;18.342;2024-03-25T02:00:35;95838.15;;;3.62;78.01
85928;BME280;76685;49.582;18.342;2024-03-25T02:03:02;95835.70;;;3.57;78.10
85928;BME280;76685;49.582;18.342;2024-03-25T02:05:29;95833.58;;;3.52;78.60
85928;BME280;76685;49.582;18.342;2024-03-25T02:07:57;95829.12;;;3.48;78.84
85928;BME280;76685;49.582;18.342;2024-03-25T02:10:25;95832.69;;;3.43;79.49
85928;BME280;76685;49.582;18.342;2024-03-25T02:12:52;95830.27;;;3.38;79.12
85928;BME280;76685;49.582;18.342;2024-03-25T02:15:19;95831.18;;;3.36;79.47
85928;BME280;76685;49.582;18.342;2024-03-25T02:17:46;95825.30;;;3.33;79.58
85928;BME280;76685;49.582;18.342;2024-03-25T02:20:13;95819.70;;;3.31;80.21
85928;BME280;76685;49.582;18.342;2024-03-25T02:22:42;95825.38;;;3.29;80.58
85928;BME280;76685;49.582;18.342;2024-03-25T02:25:10;95826.09;;;3.28;80.50
85928;BME280;76685;49.582;18.342;2024-03-25T02:27:37;95832.83;;;3.25;81.09
85928;BME280;76685;49.582;18.342;2024-03-25T02:30:06;95832.83;;;3.21;80.78
85928;BME280;76685;49.582;18.342;2024-03-25T02:32:34;95829.43;;;3.20;80.78
85928;BME280;76685;49.582;18.342;2024-03-25T02:35:04;95828.64;;;3.18;81.45
85928;BME280;76685;49.582;18.342;2024-03-25T02:37:32;95830.76;;;3.15;81.96
85928;BME280;76685;49.582;18.342;2024-03-25T02:40:01;95830.44;;;3.15;82.06
85928;BME280;76685;49.582;18.342;2024-03-25T02:42:31;95829.23;;;3.16;81.78
85928;BME280;76685;49.582;18.342;2024-03-25T02:44:59;95830.33;;;3.17;81.72
85928;BME280;76685;49.582;18.342;2024-03-25T02:47:30;95834.58;;;3.17;82.29
85928;BME280;76685;49.582;18.342;2024-03-25T02:49:57;95832.05;;;3.16;82.02
85928;BME280;76685;49.582;18.342;2024-03-25T02:52:24;95826.70;;;3.16;82.17
85928;BME280;76685;49.582;18.342;2024-03-25T02:54:51;95828.48;;;3.16;82.01
85928;BME280;76685;49.582;18.342;2024-03-25T02:57:18;95825.64;;;3.16;81.76
85928;BME280;76685;49.582;18.342;2024-03-25T02:59:45;95822.61;;;3.14;81.81
85928;BME280;76685;49.582;18.342;2024-03-25T03:02:11;95823.81;;;3.13;82.30
85928;BME280;76685;49.582;18.342;2024-03-25T03:04:38;95829.33;;;3.13;82.49
85928;BME280;76685;49.582;18.342;2024-03-25T03:07:07;95825.15;;;3.12;82.47
85928;BME280;76685;49.582;18.342;2024-03-25T03:09:35;95827.29;;;3.14;82.72
85928;BME280;76685;49.582;18.342;2024-03-25T03:12:02;95822.58;;;3.15;82.56
85928;BME280;76685;49.582;18.342;2024-03-25T03:14:30;95819.80;;;3.14;82.63
85928;BME280;76685;49.582;18.342;2024-03-25T03:16:57;95816.09;;;3.14;82.56
85928;BME280;76685;49.582;18.342;2024-03-25T03:19:31;95809.95;;;3.13;82.69
85928;BME280;76685;49.582;18.342;2024-03-25T03:21:58;95806.77;;;3.12;82.39
85928;BME280;76685;49.582;18.342;2024-03-25T03:24:25;95814.52;;;3.10;82.79
85928;BME280;76685;49.582;18.342;2024-03-25T03:26:52;95809.48;;;3.10;82.47
85928;BME280;76685;49.582;18.342;2024-03-25T03:29:19;95812.27;;;3.12;82.46
85928;BME280;76685;49.582;18.342;2024-03-25T03:31:46;95809.48;;;3.15;82.31
85928;BME280;76685;49.582;18.342;2024-03-25T03:34:13;95816.90;;;3.17;82.61
85928;BME280;76685;49.582;18.342;2024-03-25T03:36:40;95825.14;;;3.17;82.43
85928;BME280;76685;49.582;18.342;2024-03-25T03:39:07;95822.83;;;3.17;82.88
85928;BME280;76685;49.582;18.342;2024-03-25T03:41:36;95827.41;;;3.16;82.64
85928;BME280;76685;49.582;18.342;2024-03-25T03:44:03;95823.51;;;3.14;82.60
85928;BME280;76685;49.582;18.342;2024-03-25T03:46:30;95826.63;;;3.12;82.65
85928;BME280;76685;49.582;18.342;2024-03-25T03:48:57;95828.88;;;3.11;82.37
85928;BME280;76685;49.582;18.342;2024-03-25T03:51:24;95828.14;;;3.11;83.10
85928;BME280;76685;49.582;18.342;2024-03-25T03:53:50;95825.86;;;3.12;82.95
85928;BME280;76685;49.582;18.342;2024-03-25T03:56:17;95820.66;;;3.14;82.68
85928;BME280;76685;49.582;18.342;2024-03-25T03:58:44;95819.56;;;3.14;82.57
85928;BME280;76685;49.582;18.342;2024-03-25T04:01:18;95831.17;;;3.13;82.93
85928;BME280;76685;49.582;18.342;2024-03-25T04:03:45;95818.48;;;3.10;82.98
85928;BME280;76685;49.582;18.342;2024-03-25T04:06:13;95829.55;;;3.07;83.06
85928;BME280;76685;49.582;18.342;2024-03-25T04:08:40;95829.20;;;3.02;82.95
85928;BME280;76685;49.582;18.342;2024-03-25T04:11:07;95832.82;;;3.01;83.45
85928;BME280;76685;49.582;18.342;2024-03-25T04:13:34;95820.30;;;3.02;83.05
85928;BME280;76685;49.582;18.342;2024-03-25T04:16:08;95824.95;;;3.05;83.60
85928;BME280;76685;49.582;18.342;2024-03-25T04:18:36;95823.16;;;3.08;83.21
85928;BME280;76685;49.582;18.342;2024-03-25T04:21:03;95826.89;;;3.10;83.55
85928;BME280;76685;49.582;18.342;2024-03-25T04:23:30;95825.46;;;3.11;83.88
85928;BME280;76685;49.582;18.342;2024-03-25T04:26:01;95830.74;;;3.12;83.48
85928;BME280;76685;49.582;18.342;2024-03-25T04:28:28;95833.64;;;3.15;83.46
85928;BME280;76685;49.582;18.342;2024-03-25T04:30:55;95828.28;;;3.18;83.65
85928;BME280;76685;49.582;18.342;2024-03-25T04:33:22;95834.80;;;3.20;83.55
85928;BME280;76685;49.582;18.342;2024-03-25T04:35:49;95828.29;;;3.22;83.43
85928;BME280;76685;49.582;18.342;2024-03-25T04:38:16;95830.50;;;3.25;82.72
85928;BME280;76685;49.582;18.342;2024-03-25T04:40:43;95828.02;;;3.27;82.93
85928;BME280;76685;49.582;18.342;2024-03-25T04:43:13;95835.54;;;3.28;83.26
85928;BME280;76685;49.582;18.342;2024-03-25T04:45:40;95834.87;;;3.28;83.10
85928;BME280;76685;49.582;18.342;2024-03-25T04:48:07;95838.96;;;3.28;82.84
85928;BME280;76685;49.582;18.342;2024-03-25T04:50:37;95837.48;;;3.28;82.84
85928;BME280;76685;49.582;18.342;2024-03-25T04:53:03;95844.82;;;3.31;82.46
85928;BME280;76685;49.582;18.342;2024-03-25T04:55:30;95842.81;;;3.33;82.84
85928;BME280;76685;49.582;18.342;2024-03-25T04:57:57;95846.22;;;3.34;82.31
85928;BME280;76685;49.582;18.342;2024-03-25T05:00:24;95850.10;;;3.36;82.69
85928;BME280;76685;49.582;18.342;2024-03-25T05:02:51;95845.22;;;3.37;82.16
85928;BME280;76685;49.582;18.342;2024-03-25T05:05:18;95846.44;;;3.37;81.74
85928;BME280;76685;49.582;18.342;2024-03-25T05:07:45;95850.38;;;3.39;81.72
85928;BME280;76685;49.582;18.342;2024-03-25T05:10:12;95850.61;;;3.40;81.50
85928;BME280;76685;49.582;18.342;2024-03-25T05:12:39;95853.17;;;3.42;81.66
85928;BME280;76685;49.582;18.342;2024-03-25T05:15:06;95853.67;;;3.44;81.69
85928;BME280;76685;49.582;18.342;2024-03-25T05:17:33;95860.90;;;3.46;81.32
85928;BME280;76685;49.582;18.342;2024-03-25T05:20:00;95861.98;;;3.49;82.07
85928;BME280;76685;49.582;18.342;2024-03-25T05:22:27;95860.66;;;3.51;82.22
85928;BME280;76685;49.582;18.342;2024-03-25T05:24:54;95867.95;;;3.55;82.07
85928;BME280;76685;49.582;18.342;2024-03-25T05:27:21;95869.70;;;3.55;81.88
85928;BME280;76685;49.582;18.342;2024-03-25T05:29:49;95869.66;;;3.55;81.25
85928;BME280;76685;49.582;18.342;2024-03-25T05:32:16;95870.62;;;3.56;81.24
85928;BME280;76685;49.582;18.342;2024-03-25T05:34:44;95867.30;;;3.59;80.21
85928;BME280;76685;49.582;18.342;2024-03-25T05:37:11;95864.92;;;3.64;80.83
85928;BME280;76685;49.582;18.342;2024-03-25T05:39:37;95872.21;;;3.66;81.51
85928;BME280;76685;49.582;18.342;2024-03-25T05:42:04;95872.70;;;3.66;80.81
85928;BME280;76685;49.582;18.342;2024-03-25T05:44:31;95874.15;;;3.66;80.93
85928;BME280;76685;49.582;18.342;2024-03-25T05:46:58;95873.22;;;3.66;81.07
85928;BME280;76685;49.582;18.342;2024-03-25T05:49:25;95874.32;;;3.68;80.62
85928;BME280;76685;49.582;18.342;2024-03-25T05:51:52;95882.78;;;3.68;80.17
85928;BME280;76685;49.582;18.342;2024-03-25T05:54:19;95885.37;;;3.72;80.51
85928;BME280;76685;49.582;18.342;2024-03-25T05:56:46;95883.39;;;3.76;80.30
85928;BME280;76685;49.582;18.342;2024-03-25T05:59:13;95893.33;;;3.78;80.43
85928;BME280;76685;49.582;18.342;2024-03-25T06:01:40;95893.27;;;3.80;79.64
85928;BME280;76685;49.582;18.342;2024-03-25T06:04:07;95897.45;;;3.83;79.47
85928;BME280;76685;49.582;18.342;2024-03-25T06:06:34;95908.00;;;3.84;78.86
85928;BME280;76685;49.582;18.342;2024-03-25T06:09:01;95907.55;;;3.85;79.02
85928;BME280;76685;49.582;18.342;2024-03-25T06:11:29;95911.23;;;3.87;78.57
85928;BME280;76685;49.582;18.342;2024-03-25T06:13:56;95895.36;;;3.91;78.91
85928;BME280;76685;49.582;18.342;2024-03-25T06:16:23;95893.71;;;3.97;78.61
85928;BME280;76685;49.582;18.342;2024-03-25T06:18:50;95900.40;;;4.06;78.84
85928;BME280;76685;49.582;18.342;2024-03-25T06:21:17;95899.08;;;4.14;78.16
85928;BME280;76685;49.582;18.342;2024-03-25T06:23:44;95898.47;;;4.19;77.39
85928;BME280;76685;49.582;18.342;2024-03-25T06:26:11;95907.27;;;4.25;77.85
85928;BME280;76685;49.582;18.342;2024-03-25T06:28:38;95900.92;;;4.31;78.00
85928;BME280;76685;49.582;18.342;2024-03-25T06:31:08;95899.77;;;4.36;77.31
85928;BME280;76685;49.582;18.342;2024-03-25T06:33:53;95904.11;;;4.42;76.82
85928;BME280;76685;49.582;18.342;2024-03-25T06:36:39;95897.86;;;4.45;77.63
85928;BME280;76685;49.582;18.342;2024-03-25T06:39:06;95907.09;;;4.48;77.73
85928;BME280;76685;49.582;18.342;2024-03-25T06:41:32;95901.38;;;4.54;77.53
85928;BME280;76685;49.582;18.342;2024-03-25T06:43:59;95899.09;;;4.63;77.92
85928;BME280;76685;49.582;18.342;2024-03-25T06:46:26;95906.56;;;4.72;77.58
85928;BME280;76685;49.582;18.342;2024-03-25T06:48:53;95900.91;;;4.75;77.20
85928;BME280;76685;49.582;18.342;2024-03-25T06:51:20;95906.02;;;4.77;76.91
85928;BME280;76685;49.582;18.342;2024-03-25T06:53:47;95908.39;;;4.79;77.35
85928;BME280;76685;49.582;18.342;2024-03-25T06:56:14;95912.66;;;4.81;77.14
85928;BME280;76685;49.582;18.342;2024-03-25T06:58:41;95918.34;;;4.80;77.97
85928;BME280;76685;49.582;18.342;2024-03-25T07:01:09;95907.37;;;4.76;76.91
85928;BME280;76685;49.582;18.342;2024-03-25T07:03:38;95928.63;;;4.70;77.69
85928;BME280;76685;49.582;18.342;2024-03-25T07:06:05;95931.70;;;4.67;77.82
85928;BME280;76685;49.582;18.342;2024-03-25T07:08:32;95924.60;;;4.65;77.10
85928;BME280;76685;49.582;18.342;2024-03-25T07:11:00;95926.98;;;4.66;77.56
85928;BME280;76685;49.582;18.342;2024-03-25T07:13:27;95934.66;;;4.64;77.29
85928;BME280;76685;49.582;18.342;2024-03-25T07:15:53;95928.03;;;4.68;77.03
85928;BME280;76685;49.582;18.342;2024-03-25T07:18:22;95927.17;;;4.70;77.06
85928;BME280;76685;49.582;18.342;2024-03-25T07:20:49;95933.17;;;4.71;77.05
85928;BME280;76685;49.582;18.342;2024-03-25T07:23:16;95939.80;;;4.72;77.32
85928;BME280;76685;49.582;18.342;2024-03-25T07:25:43;95940.79;;;4.75;77.01
85928;BME280;76685;49.582;18.342;2024-03-25T07:28:10;95937.70;;;4.75;76.65
85928;BME280;76685;49.582;18.342;2024-03-25T07:30:37;95947.58;;;4.78;76.99
85928;BME280;76685;49.582;18.342;2024-03-25T07:33:04;95956.56;;;4.79;76.70
85928;BME280;76685;49.582;18.342;2024-03-25T07:35:31;95952.77;;;4.75;75.92
85928;BME280;76685;49.582;18.342;2024-03-25T07:37:58;95961.15;;;4.70;75.77
85928;BME280;76685;49.582;18.342;2024-03-25T07:40:25;95948.45;;;4.66;75.68
85928;BME280;76685;49.582;18.342;2024-03-25T07:42:52;95961.55;;;4.61;76.30
85928;BME280;76685;49.582;18.342;2024-03-25T07:45:19;95952.50;;;4.58;75.82
85928;BME280;76685;49.582;18.342;2024-03-25T07:47:46;95968.55;;;4.53;76.15
85928;BME280;76685;49.582;18.342;2024-03-25T07:50:13;95974.36;;;4.53;75.85
85928;BME280;76685;49.582;18.342;2024-03-25T07:52:41;95970.30;;;4.50;76.36
85928;BME280;76685;49.582;18.342;2024-03-25T07:55:08;95978.69;;;4.46;77.18
85928;BME280;76685;49.582;18.342;2024-03-25T07:57:36;95971.94;;;4.43;77.22
85928;BME280;76685;49.582;18.342;2024-03-25T08:00:03;95974.91;;;4.40;77.67
85928;BME280;76685;49.582;18.342;2024-03-25T08:02:35;95977.91;;;4.42;77.22
85928;BME280;76685;49.582;18.342;2024-03-25T08:05:02;95984.80;;;4.49;77.61
85928;BME280;76685;49.582;18.342;2024-03-25T08:07:29;95976.80;;;4.59;76.32
85928;BME280;76685;49.582;18.342;2024-03-25T08:09:56;95977.67;;;4.71;76.18
85928;BME280;76685;49.582;18.342;2024-03-25T08:12:23;95982.38;;;4.80;75.25
85928;BME280;76685;49.582;18.342;2024-03-25T08:14:50;95983.33;;;4.92;75.61
85928;BME280;76685;49.582;18.342;2024-03-25T08:17:17;95986.89;;;5.00;75.67
85928;BME280;76685;49.582;18.342;2024-03-25T08:19:44;95982.40;;;5.07;75.62
85928;BME280;76685;49.582;18.342;2024-03-25T08:22:11;95984.23;;;5.11;74.65
85928;BME280;76685;49.582;18.342;2024-03-25T08:24:38;95998.71;;;5.14;74.49
85928;BME280;76685;49.582;18.342;2024-03-25T08:27:05;95996.49;;;5.12;73.65
85928;BME280;76685;49.582;18.342;2024-03-25T08:29:31;96007.09;;;5.12;74.36
85928;BME280;76685;49.582;18.342;2024-03-25T08:31:58;96012.39;;;5.19;74.80
85928;BME280;76685;49.582;18.342;2024-03-25T08:34:25;96008.30;;;5.27;74.64
85928;BME280;76685;49.582;18.342;2024-03-25T08:36:52;96014.27;;;5.28;74.49
85928;BME280;76685;49.582;18.342;2024-03-25T08:39:20;96012.06;;;5.22;75.03
85928;BME280;76685;49.582;18.342;2024-03-25T08:41:47;96018.05;;;5.17;76.65
85928;BME280;76685;49.582;18.342;2024-03-25T08:44:14;96014.86;;;5.18;76.41
85928;BME280;76685;49.582;18.342;2024-03-25T08:46:41;96019.06;;;5.18;75.62
85928;BME280;76685;49.582;18.342;2024-03-25T08:49:08;96023.13;;;5.17;75.00
85928;BME280;76685;49.582;18.342;2024-03-25T08:51:36;96017.56;;;5.39;76.09
85928;BME280;76685;49.582;18.342;2024-03-25T08:54:03;96015.03;;;5.75;75.75
85928;BME280;76685;49.582;18.342;2024-03-25T08:56:30;96030.21;;;6.05;74.09
85928;BME280;76685;49.582;18.342;2024-03-25T08:58:57;96027.44;;;6.07;71.33
85928;BME280;76685;49.582;18.342;2024-03-25T09:01:24;96030.23;;;5.98;71.31
85928;BME280;76685;49.582;18.342;2024-03-25T09:03:51;96029.73;;;5.84;71.16
85928;BME280;76685;49.582;18.342;2024-03-25T09:06:18;96033.23;;;5.80;71.95
85928;BME280;76685;49.582;18.342;2024-03-25T09:08:45;96037.69;;;5.80;72.14
85928;BME280;76685;49.582;18.342;2024-03-25T09:11:31;96034.86;;;5.80;72.42
85928;BME280;76685;49.582;18.342;2024-03-25T09:13:59;96041.33;;;5.75;72.10
85928;BME280;76685;49.582;18.342;2024-03-25T09:16:25;96047.65;;;5.75;72.19
85928;BME280;76685;49.582;18.342;2024-03-25T09:18:52;96044.39;;;5.72;72.46
85928;BME280;76685;49.582;18.342;2024-03-25T09:21:19;96048.92;;;5.72;72.87
85928;BME280;76685;49.582;18.342;2024-03-25T09:23:46;96043.07;;;5.68;73.15
85928;BME280;76685;49.582;18.342;2024-03-25T09:26:14;96049.69;;;5.66;73.62
85928;BME280;76685;49.582;18.342;2024-03-25T09:28:41;96047.40;;;5.65;74.09
85928;BME280;76685;49.582;18.342;2024-03-25T09:31:08;96050.43;;;5.62;73.71
85928;BME280;76685;49.582;18.342;2024-03-25T09:33:35;96051.25;;;5.60;73.91
85928;BME280;76685;49.582;18.342;2024-03-25T09:36:02;96062.75;;;5.55;73.80
85928;BME280;76685;49.582;18.342;2024-03-25T09:38:30;96048.52;;;5.55;74.23
85928;BME280;76685;49.582;18.342;2024-03-25T09:40:57;96063.13;;;5.51;75.10
85928;BME280;76685;49.582;18.342;2024-03-25T09:43:58;96051.12;;;5.45;74.69
85928;BME280;76685;49.582;18.342;2024-03-25T09:46:26;96055.60;;;5.43;75.59
85928;BME280;76685;49.582;18.342;2024-03-25T09:48:53;96058.41;;;5.43;75.72
85928;BME280;76685;49.582;18.342;2024-03-25T09:51:20;96050.33;;;5.36;76.38
85928;BME280;76685;49.582;18.342;2024-03-25T09:53:47;96059.36;;;5.28;76.83
85928;BME280;76685;49.582;18.342;2024-03-25T09:56:14;96052.55;;;5.24;77.44
85928;BME280;76685;49.582;18.342;2024-03-25T09:58:43;96061.95;;;5.23;76.23
85928;BME280;76685;49.582;18.342;2024-03-25T10:01:10;96064.22;;;5.34;76.79
85928;BME280;76685;49.582;18.342;2024-03-25T10:03:37;96058.90;;;5.52;77.21
85928;BME280;76685;49.582;18.342;2024-03-25T10:06:04;96068.06;;;5.81;75.94
85928;BME280;76685;49.582;18.342;2024-03-25T10:08:31;96063.23;;;6.41;74.46
85928;BME280;76685;49.582;18.342;2024-03-25T10:10:58;96056.64;;;7.06;73.36
85928;BME280;76685;49.582;18.342;2024-03-25T10:13:26;96056.34;;;7.38;69.81
85928;BME280;76685;49.582;18.342;2024-03-25T10:15:55;96058.73;;;7.49;68.25
85928;BME280;76685;49.582;18.342;2024-03-25T10:18:22;96054.66;;;7.48;67.85
85928;BME280;76685;49.582;18.342;2024-03-25T10:20:50;96058.31;;;7.53;67.88
85928;BME280;76685;49.582;18.342;2024-03-25T10:23:20;96055.28;;;7.67;67.92
85928;BME280;76685;49.582;18.342;2024-03-25T10:25:48;96063.09;;;7.60;66.08
85928;BME280;76685;49.582;18.342;2024-03-25T10:28:15;96055.06;;;7.48;65.80
85928;BME280;76685;49.582;18.342;2024-03-25T10:30:42;96058.92;;;7.34;65.38
85928;BME280;76685;49.582;18.342;2024-03-25T10:33:09;96062.80;;;7.20;65.37
85928;BME280;76685;49.582;18.342;2024-03-25T10:35:37;96054.96;;;7.16;66.32
85928;BME280;76685;49.582;18.342;2024-03-25T10:38:06;96060.35;;;7.08;65.71
85928;BME280;76685;49.582;18.342;2024-03-25T10:40:35;96067.49;;;7.02;66.53
85928;BME280;76685;49.582;18.342;2024-03-25T10:43:11;96058.48;;;7.03;66.03
85928;BME280;76685;49.582;18.342;2024-03-25T10:45:47;96062.29;;;7.45;64.47
85928;BME280;76685;49.582;18.342;2024-03-25T10:48:25;96056.02;;;8.11;67.37
85928;BME280;76685;49.582;18.342;2024-03-25T10:50:55;96051.19;;;8.84;63.85
85928;BME280;76685;49.582;18.342;2024-03-25T10:53:24;96040.40;;;9.13;57.79
85928;BME280;76685;49.582;18.342;2024-03-25T10:55:54;96036.79;;;9.38;60.80
85928;BME280;76685;49.582;18.342;2024-03-25T10:58:22;96030.15;;;9.63;60.06
85928;BME280;76685;49.582;18.342;2024-03-25T11:00:51;96037.46;;;9.64;58.58
85928;BME280;76685;49.582;18.342;2024-03-25T11:03:19;96036.92;;;9.55;58.30
85928;BME280;76685;49.582;18.342;2024-03-25T11:05:47;96044.48;;;9.74;57.68
85928;BME280;76685;49.582;18.342;2024-03-25T11:08:16;96032.85;;;9.75;58.46
85928;BME280;76685;49.582;18.342;2024-03-25T11:10:45;96033.73;;;9.79;56.96
85928;BME280;76685;49.582;18.342;2024-03-25T11:13:14;96040.09;;;9.50;57.18
85928;BME280;76685;49.582;18.342;2024-03-25T11:15:43;96042.41;;;9.26;57.71
85928;BME280;76685;49.582;18.342;2024-03-25T11:18:15;96033.18;;;9.08;57.52
85928;BME280;76685;49.582;18.342;2024-03-25T11:20:44;96040.59;;;8.93;59.38
85928;BME280;76685;49.582;18.342;2024-03-25T11:23:12;96040.72;;;8.95;59.09
85928;BME280;76685;49.582;18.342;2024-03-25T11:25:41;96034.66;;;9.20;59.04
85928;BME280;76685;49.582;18.342;2024-03-25T11:28:09;96030.82;;;9.26;58.82
85928;BME280;76685;49.582;18.342;2024-03-25T11:30:36;96030.09;;;9.20;58.67
85928;BME280;76685;49.582;18.342;2024-03-25T11:33:04;96028.45;;;9.36;57.79
85928;BME280;76685;49.582;18.342;2024-03-25T11:35:37;96026.32;;;9.79;57.01
85928;BME280;76685;49.582;18.342;2024-03-25T11:38:04;96015.75;;;10.45;54.02
85928;BME280;76685;49.582;18.342;2024-03-25T11:40:32;96024.57;;;10.35;53.06
85928;BME280;76685;49.582;18.342;2024-03-25T11:42:59;96036.01;;;10.42;54.19
85928;BME280;76685;49.582;18.342;2024-03-25T11:45:26;96028.08;;;10.32;53.92
85928;BME280;76685;49.582;18.342;2024-03-25T11:47:53;96024.27;;;10.14;53.08
85928;BME280;76685;49.582;18.342;2024-03-25T11:50:20;96022.19;;;10.38;54.49
85928;BME280;76685;49.582;18.342;2024-03-25T11:52:47;96026.69;;;10.39;55.04
85928;BME280;76685;49.582;18.342;2024-03-25T11:55:18;96028.66;;;10.23;55.88
85928;BME280;76685;49.582;18.342;2024-03-25T11:57:45;96019.19;;;10.02;56.56
85928;BME280;76685;49.582;18.342;2024-03-25T12:00:12;96014.10;;;10.13;54.15
85928;BME280;76685;49.582;18.342;2024-03-25T12:02:45;96024.05;;;10.23;56.19
85928;BME280;76685;49.582;18.342;2024-03-25T12:05:12;96017.35;;;10.66;54.58
85928;BME280;76685;49.582;18.342;2024-03-25T12:07:39;96009.60;;;10.53;52.02
85928;BME280;76685;49.582;18.342;2024-03-25T12:10:07;96017.78;;;10.72;50.23
85928;BME280;76685;49.582;18.342;2024-03-25T12:12:53;96022.03;;;10.35;50.32
85928;BME280;76685;49.582;18.342;2024-03-25T12:15:20;96024.31;;;9.99;49.80
85928;BME280;76685;49.582;18.342;2024-03-25T12:17:48;96011.55;;;9.78;52.94
85928;BME280;76685;49.582;18.342;2024-03-25T12:20:15;96016.92;;;9.77;52.05
85928;BME280;76685;49.582;18.342;2024-03-25T12:22:43;96018.91;;;9.81;52.93
85928;BME280;76685;49.582;18.342;2024-03-25T12:25:11;96012.71;;;9.76;53.35
85928;BME280;76685;49.582;18.342;2024-03-25T12:27:39;96012.38;;;9.67;52.70
85928;BME280;76685;49.582;18.342;2024-03-25T12:30:08;96011.09;;;9.54;54.60
85928;BME280;76685;49.582;18.342;2024-03-25T12:32:43;96012.59;;;9.48;55.24
85928;BME280;76685;49.582;18.342;2024-03-25T12:35:15;96009.80;;;9.46;55.73
85928;BME280;76685;49.582;18.342;2024-03-25T12:37:44;96017.98;;;9.43;56.24
85928;BME280;76685;49.582;18.342;2024-03-25T12:40:12;96016.20;;;9.36;53.39
85928;BME280;76685;49.582;18.342;2024-03-25T12:42:41;96018.44;;;9.29;53.27
85928;BME280;76685;49.582;18.342;2024-03-25T12:45:08;96019.00;;;9.24;53.66
85928;BME280;76685;49.582;18.342;2024-03-25T12:47:35;96020.76;;;9.31;54.18
85928;BME280;76685;49.582;18.342;2024-03-25T12:50:02;96017.31;;;9.40;56.12
85928;BME280;76685;49.582;18.342;2024-03-25T12:52:30;96018.41;;;9.78;55.17
85928;BME280;76685;49.582;18.342;2024-03-25T12:54:57;96018.12;;;10.57;54.75
85928;BME280;76685;49.582;18.342;2024-03-25T12:57:24;96010.21;;;11.26;52.52
85928;BME280;76685;49.582;18.342;2024-03-25T12:59:51;96013.16;;;11.82;50.79
85928;BME280;76685;49.582;18.342;2024-03-25T13:02:18;96003.11;;;12.17;47.99
85928;BME280;76685;49.582;18.342;2024-03-25T13:04:46;96015.86;;;12.08;48.02